Clement, Illinois
Current Conditions -  °F | °C
As of 7:15 AM on Thursday 18 Dec 2014 (Local Time) from KENL Reporting Station
Overcast Overcast  
Wind Chill: 23°   Ceiling: 1000
Heat Index: 28°   Visibility: 7mi
Dew Point: 24°   Wind: 5mph
Humidity: 84%   Direction: 60°ENE
Pressure: 30.3"   Gusts: NA
Location:  38.6036°N, 89.2916°W
Report Text: KENL 181315Z AUTO 06004KT 7SM BKN010 OVC065 M02/M04 A3030 RMK AO2 T10221045
Loading
Personal Weather Stations






























Interactive Weather Map New forecast layout! Learn more

10-Day Weather Forecast

Advertisements
Track Severe Weather on mobile